Time;durP1;ratioP1;P1;durP2;ratioP2;P2;SDS_P1;SDS_P2;PMS_P1;PMS_P2;Temp;Humidity;BMP_temperature;BMP_pressure;BME280_temperature;BME280_humidity;BME280_pressure;Samples;Min_cycle;Max_cycle;Signal;HPM_P1;HPM_P2
2024/03/19 00:03:10;;;;;;;9.87;7.10;;;;;;;;;;5927041;23;20737;-85
2024/03/19 00:05:46;;;;;;;11.23;7.30;;;;;;;;;;5997796;23;20406;-85
2024/03/19 00:11:19;;;;;;;9.27;7.10;;;;;;;;;;6105145;23;20850;-86
2024/03/19 00:13:54;;;;;;;7.40;6.60;;;;;;;;;;6103617;23;21076;-87
2024/03/19 00:19:24;;;;;;;9.10;6.57;;;;;;;;;;6090744;23;20803;-86
2024/03/19 00:22:32;;;;;;;10.80;7.07;;;;;;;;;;6084134;23;20411;-85
2024/03/19 00:25:27;;;;;;;10.17;6.70;;;;;;;;;;6072059;23;20406;-86
2024/03/19 00:27:59;;;;;;;12.03;7.63;;;;;;;;;;6075502;23;20488;-86
2024/03/19 00:30:49;;;;;;;7.90;6.60;;;;;;;;;;6006683;23;20406;-86
2024/03/19 00:33:27;;;;;;;9.70;6.90;;;;;;;;;;6025085;23;20831;-86
2024/03/19 00:36:00;;;;;;;8.60;6.23;;;;;;;;;;6026388;23;21131;-86
2024/03/19 00:39:21;;;;;;;12.47;6.70;;;;;;;;;;6043237;23;20437;-86
2024/03/19 00:41:54;;;;;;;11.50;6.63;;;;;;;;;;6048892;23;20984;-85
2024/03/19 00:44:24;;;;;;;8.77;6.80;;;;;;;;;;6047997;23;20402;-85
2024/03/19 00:47:07;;;;;;;;;;;;;;;;;;;;;
2024/03/19 00:49:46;;;;;;;10.90;7.40;;;;;;;;;;6100652;23;20401;-85
2024/03/19 00:52:49;;;;;;;10.73;6.87;;;;;;;;;;6052944;23;20414;-86
2024/03/19 00:55:35;;;;;;;10.93;6.37;;;;;;;;;;6051552;23;20406;-86
2024/03/19 00:58:24;;;;;;;10.20;6.37;;;;;;;;;;6074617;23;20422;-87
2024/03/19 01:01:23;;;;;;;11.07;6.30;;;;;;;;;;6076108;23;20385;-86
2024/03/19 01:03:56;;;;;;;9.67;6.80;;;;;;;;;;6051729;23;20405;-85
2024/03/19 01:06:41;;;;;;;11.83;5.97;;;;;;;;;;6053078;23;20409;-86
2024/03/19 01:09:16;;;;;;;9.93;6.70;;;;;;;;;;6076270;23;20405;-86
2024/03/19 01:11:44;;;;;;;11.13;7.10;;;;;;;;;;6075638;23;20402;-85
2024/03/19 01:14:13;;;;;;;11.70;6.10;;;;;;;;;;6078904;23;20484;-85
2024/03/19 01:17:20;;;;;;;7.10;5.73;;;;;;;;;;6055242;23;20467;-85
2024/03/19 01:19:57;;;;;;;7.57;5.97;;;;;;;;;;6023064;23;20402;-85
2024/03/19 01:29:12;;;;;;;10.50;6.87;;;;;;;;;;6100721;23;20456;-87
2024/03/19 01:32:07;;;;;;;9.17;5.90;;;;;;;;;;6060257;23;20401;-87
2024/03/19 01:35:16;;;;;;;8.00;6.83;;;;;;;;;;6067599;23;20445;-85
2024/03/19 01:41:05;;;;;;;9.57;6.87;;;;;;;;;;6123522;23;20341;-85
2024/03/19 01:43:41;;;;;;;10.53;7.23;;;;;;;;;;6068636;23;20458;-86
2024/03/19 01:46:29;;;;;;;7.93;5.77;;;;;;;;;;6075765;23;20480;-85
2024/03/19 01:49:09;;;;;;;;;;;;;;;;;;;;;
2024/03/19 01:52:11;;;;;;;;;;;;;;;;;;;;;
2024/03/19 01:55:02;;;;;;;7.23;5.40;;;;;;;;;;6119888;23;20444;-88
2024/03/19 01:57:29;;;;;;;9.17;6.47;;;;;;;;;;6073310;23;20456;-85
2024/03/19 02:00:10;;;;;;;10.40;6.60;;;;;;;;;;6068180;23;20489;-85
2024/03/19 02:02:47;;;;;;;6.77;5.40;;;;;;;;;;6044921;23;20492;-88
2024/03/19 02:05:33;;;;;;;8.00;5.97;;;;;;;;;;6076328;23;20424;-86
2024/03/19 02:11:24;;;;;;;;;;;;;;;;;;;;;
2024/03/19 02:14:15;;;;;;;9.23;5.87;;;;;;;;;;6119589;23;20514;-87
2024/03/19 02:17:10;;;;;;;11.67;6.80;;;;;;;;;;6120581;23;20456;-85
2024/03/19 02:23:06;;;;;;;12.80;7.00;;;;;;;;;;6081048;23;20459;-85
2024/03/19 02:26:06;;;;;;;8.80;5.60;;;;;;;;;;6014462;23;20414;-85
2024/03/19 02:28:35;;;;;;;7.80;6.07;;;;;;;;;;6059758;23;20467;-87
2024/03/19 02:31:14;;;;;;;11.80;5.90;;;;;;;;;;6083947;23;20417;-86
2024/03/19 02:33:53;;;;;;;8.60;6.37;;;;;;;;;;6081119;23;20456;-88
2024/03/19 02:38:59;;;;;;;7.70;6.00;;;;;;;;;;6107581;23;20840;-86
2024/03/19 02:41:47;;;;;;;12.13;7.00;;;;;;;;;;6059464;23;20393;-87
2024/03/19 02:44:26;;;;;;;11.17;5.90;;;;;;;;;;6093553;23;20526;-86
2024/03/19 02:46:56;;;;;;;9.40;6.77;;;;;;;;;;6070033;23;20412;-85
2024/03/19 02:49:23;;;;;;;11.40;7.33;;;;;;;;;;6070642;23;20721;-83
2024/03/19 02:51:51;;;;;;;9.00;6.17;;;;;;;;;;6069756;23;20388;-86
2024/03/19 02:57:56;;;;;;;9.50;6.30;;;;;;;;;;6118805;23;20383;-86
2024/03/19 03:00:44;;;;;;;11.80;6.70;;;;;;;;;;6071479;23;20401;-85
2024/03/19 03:03:19;;;;;;;17.30;7.13;;;;;;;;;;6068190;23;20393;-85
2024/03/19 03:06:00;;;;;;;10.27;6.57;;;;;;;;;;6066284;23;20408;-83
2024/03/19 03:08:36;;;;;;;9.80;6.07;;;;;;;;;;6068441;23;20421;-89
2024/03/19 03:11:19;;;;;;;7.67;5.47;;;;;;;;;;6069596;23;20397;-90
2024/03/19 03:13:55;;;;;;;9.90;6.63;;;;;;;;;;6062621;23;20441;-88
2024/03/19 03:16:32;;;;;;;10.93;5.90;;;;;;;;;;6058118;23;20684;-86
2024/03/19 03:19:01;;;;;;;9.70;6.70;;;;;;;;;;6061577;23;20527;-86
2024/03/19 03:21:33;;;;;;;5.97;5.17;;;;;;;;;;6059485;23;20401;-87
2024/03/19 03:24:03;;;;;;;11.83;6.10;;;;;;;;;;6056202;23;20408;-87
2024/03/19 03:26:33;;;;;;;7.90;6.90;;;;;;;;;;6054629;23;20410;-88
2024/03/19 03:28:59;;;;;;;9.37;6.07;;;;;;;;;;6057577;23;20428;-86
2024/03/19 03:31:28;;;;;;;12.37;6.80;;;;;;;;;;6049584;23;20412;-87
2024/03/19 03:34:07;;;;;;;8.13;6.10;;;;;;;;;;6054109;23;20444;-87
2024/03/19 03:36:40;;;;;;;10.23;6.53;;;;;;;;;;6053598;23;20416;-87
2024/03/19 03:39:40;;;;;;;8.70;6.40;;;;;;;;;;6104498;23;20396;-86
2024/03/19 03:42:20;;;;;;;13.10;7.60;;;;;;;;;;6056788;23;20483;-85
2024/03/19 03:44:52;;;;;;;8.30;5.60;;;;;;;;;;6050512;23;20412;-86
2024/03/19 03:47:21;;;;;;;11.87;5.90;;;;;;;;;;6051792;23;20431;-86
2024/03/19 03:49:52;;;;;;;8.17;5.73;;;;;;;;;;6055322;23;20425;-86
2024/03/19 03:52:39;;;;;;;8.33;6.47;;;;;;;;;;6055008;23;20401;-86
2024/03/19 03:55:19;;;;;;;8.60;5.60;;;;;;;;;;6057233;23;20445;-86
2024/03/19 03:57:45;;;;;;;7.27;5.53;;;;;;;;;;6049853;23;20425;-87
2024/03/19 04:00:18;;;;;;;6.80;5.00;;;;;;;;;;6056820;23;20459;-86
2024/03/19 04:02:47;;;;;;;10.40;5.70;;;;;;;;;;6055942;23;20405;-87
2024/03/19 04:05:26;;;;;;;9.10;5.50;;;;;;;;;;6057722;23;20409;-85
2024/03/19 04:08:01;;;;;;;9.53;5.70;;;;;;;;;;6055117;23;20425;-86
2024/03/19 04:10:31;;;;;;;10.50;6.40;;;;;;;;;;6057997;23;20411;-87
2024/03/19 04:13:03;;;;;;;8.27;6.43;;;;;;;;;;6060968;23;20411;-84
2024/03/19 04:15:49;;;;;;;;;;;;;;;;;;;;;
2024/03/19 04:18:20;;;;;;;10.43;7.13;;;;;;;;;;6077234;23;20432;-87
2024/03/19 04:24:29;;;;;;;9.33;6.93;;;;;;;;;;5992760;23;20399;-86
2024/03/19 04:30:16;;;;;;;9.70;6.67;;;;;;;;;;6017799;23;20386;-86
2024/03/19 04:32:47;;;;;;;9.00;6.00;;;;;;;;;;6002942;23;20431;-85
2024/03/19 04:35:17;;;;;;;15.53;8.20;;;;;;;;;;6033730;23;20436;-88
2024/03/19 04:37:45;;;;;;;7.97;6.20;;;;;;;;;;6076446;23;20447;-86
2024/03/19 04:40:12;;;;;;;9.27;6.17;;;;;;;;;;6085921;23;20401;-86
2024/03/19 04:42:53;;;;;;;;;;;;;;;;;;;;;
2024/03/19 04:45:23;;;;;;;8.40;6.30;;;;;;;;;;6103230;23;20420;-85
2024/03/19 04:47:54;;;;;;;11.30;6.70;;;;;;;;;;6078749;23;20428;-86
2024/03/19 04:50:30;;;;;;;8.00;6.10;;;;;;;;;;6107736;23;20401;-89
2024/03/19 04:52:56;;;;;;;12.67;6.57;;;;;;;;;;6076559;23;20409;-85
2024/03/19 04:55:29;;;;;;;11.53;7.27;;;;;;;;;;6083264;23;20385;-87
2024/03/19 04:57:59;;;;;;;9.60;6.70;;;;;;;;;;6096285;23;20468;-88
2024/03/19 05:00:31;;;;;;;10.70;6.57;;;;;;;;;;6093121;23;20464;-90
2024/03/19 05:03:09;;;;;;;9.90;6.70;;;;;;;;;;6097464;23;20456;-90
2024/03/19 05:05:42;;;;;;;14.00;7.20;;;;;;;;;;6098551;23;20452;-87
2024/03/19 05:08:31;;;;;;;;;;;;;;;;;;;;;
2024/03/19 05:11:04;;;;;;;13.00;6.47;;;;;;;;;;6102938;23;20440;-86
2024/03/19 05:13:31;;;;;;;9.90;6.10;;;;;;;;;;6076954;23;20450;-85
2024/03/19 05:16:01;;;;;;;9.80;6.83;;;;;;;;;;6075890;23;20405;-85
2024/03/19 05:18:39;;;;;;;9.53;6.33;;;;;;;;;;6077202;23;20431;-85
2024/03/19 05:21:18;;;;;;;12.40;6.00;;;;;;;;;;6076254;23;20468;-86
2024/03/19 05:23:55;;;;;;;;;;;;;;;;;;;;;
2024/03/19 05:26:33;;;;;;;7.57;5.43;;;;;;;;;;6098253;23;20405;-84
2024/03/19 05:29:09;;;;;;;9.30;7.03;;;;;;;;;;6068371;23;20408;-85
2024/03/19 05:32:04;;;;;;;9.33;6.57;;;;;;;;;;6022645;23;20401;-83
2024/03/19 05:34:47;;;;;;;10.03;6.67;;;;;;;;;;6072737;23;20440;-86
2024/03/19 05:37:13;;;;;;;6.93;6.07;;;;;;;;;;6074304;23;20440;-84
2024/03/19 05:40:21;;;;;;;10.40;5.43;;;;;;;;;;6079971;23;20404;-85
2024/03/19 05:45:57;;;;;;;10.67;6.53;;;;;;;;;;6074412;23;20404;-84
2024/03/19 05:48:37;;;;;;;10.23;5.57;;;;;;;;;;6123116;23;20487;-89
2024/03/19 05:51:35;;;;;;;7.23;5.70;;;;;;;;;;6095437;23;20397;-86
2024/03/19 05:57:17;;;;;;;;;;;;;;;;;;;;;
2024/03/19 06:00:37;;;;;;;;;;;;;;;;;;;;;
2024/03/19 06:03:19;;;;;;;11.23;7.17;;;;;;;;;;6128022;23;20404;-86
2024/03/19 06:06:25;;;;;;;7.10;6.07;;;;;;;;;;6079238;23;20412;-86
2024/03/19 06:08:55;;;;;;;10.53;6.50;;;;;;;;;;6075771;23;20475;-86
2024/03/19 06:11:48;;;;;;;;;;;;;;;;;;;;;
2024/03/19 06:14:17;;;;;;;9.30;6.40;;;;;;;;;;6103296;23;20448;-87
2024/03/19 06:16:47;;;;;;;10.13;6.03;;;;;;;;;;6092776;23;20427;-84
2024/03/19 06:19:20;;;;;;;10.50;6.70;;;;;;;;;;6099683;23;20479;-87
2024/03/19 06:25:31;;;;;;;10.10;6.27;;;;;;;;;;6061581;23;20392;-88
2024/03/19 06:28:25;;;;;;;8.93;6.10;;;;;;;;;;6088041;23;20415;-87
2024/03/19 06:31:07;;;;;;;11.00;5.83;;;;;;;;;;6087486;23;20405;-88
2024/03/19 06:33:47;;;;;;;11.77;6.30;;;;;;;;;;6074287;23;20714;-87
2024/03/19 06:36:22;;;;;;;9.80;6.50;;;;;;;;;;6083074;23;20401;-87
2024/03/19 06:39:09;;;;;;;11.07;6.73;;;;;;;;;;6083961;23;20421;-86
2024/03/19 06:42:19;;;;;;;12.73;6.30;;;;;;;;;;6105639;23;20397;-87
2024/03/19 06:44:54;;;;;;;8.20;6.10;;;;;;;;;;6081045;23;20404;-86
2024/03/19 06:47:59;;;;;;;9.87;6.47;;;;;;;;;;6082825;23;20429;-86
2024/03/19 06:50:45;;;;;;;7.83;6.03;;;;;;;;;;6077020;23;20409;-87
2024/03/19 06:56:25;;;;;;;14.37;6.10;;;;;;;;;;6101433;23;20415;-86
2024/03/19 06:59:03;;;;;;;7.93;6.30;;;;;;;;;;6081456;23;20909;-86
2024/03/19 07:01:52;;;;;;;12.50;7.30;;;;;;;;;;6081388;23;20405;-88
2024/03/19 07:04:27;;;;;;;9.30;6.80;;;;;;;;;;6075872;23;20417;-86
2024/03/19 07:06:59;;;;;;;11.50;6.50;;;;;;;;;;6079985;23;20463;-85
2024/03/19 07:09:53;;;;;;;9.40;6.77;;;;;;;;;;6061110;23;20424;-87
2024/03/19 07:12:40;;;;;;;11.83;6.93;;;;;;;;;;6084016;23;20404;-85
2024/03/19 07:15:33;;;;;;;9.63;6.20;;;;;;;;;;6080253;23;20451;-87
2024/03/19 07:18:23;;;;;;;8.07;5.30;;;;;;;;;;6106858;23;20930;-85
2024/03/19 07:21:16;;;;;;;12.53;7.00;;;;;;;;;;6093874;23;20404;-85
2024/03/19 07:23:52;;;;;;;14.40;7.20;;;;;;;;;;6094899;23;20443;-85
2024/03/19 07:26:31;;;;;;;8.60;6.43;;;;;;;;;;6094441;23;20472;-86
2024/03/19 07:29:15;;;;;;;8.67;6.37;;;;;;;;;;6139369;23;20479;-85
2024/03/19 07:31:50;;;;;;;12.10;7.20;;;;;;;;;;6091445;23;20409;-84
2024/03/19 07:34:28;;;;;;;12.43;7.33;;;;;;;;;;6087398;23;20451;-84
2024/03/19 07:37:00;;;;;;;8.00;6.97;;;;;;;;;;6082618;23;20428;-86
2024/03/19 07:39:44;;;;;;;13.10;7.37;;;;;;;;;;6077164;23;20427;-86
2024/03/19 07:42:53;;;;;;;13.00;6.80;;;;;;;;;;6088792;23;20420;-86
2024/03/19 07:45:38;;;;;;;12.77;6.40;;;;;;;;;;6073704;23;20762;-85
2024/03/19 07:48:26;;;;;;;10.83;6.43;;;;;;;;;;6076896;23;20427;-86
2024/03/19 07:51:30;;;;;;;12.63;6.77;;;;;;;;;;6064022;23;20405;-87
2024/03/19 07:54:32;;;;;;;13.80;7.30;;;;;;;;;;6079921;23;20444;-86
2024/03/19 07:57:14;;;;;;;9.43;6.60;;;;;;;;;;6076864;23;20447;-85
2024/03/19 08:03:17;;;;;;;;;;;;;;;;;;;;;
2024/03/19 08:09:18;;;;;;;12.40;5.90;;;;;;;;;;6025176;23;20394;-85
2024/03/19 08:11:49;;;;;;;10.53;7.90;;;;;;;;;;6078657;23;20447;-86
2024/03/19 08:14:18;;;;;;;10.17;7.00;;;;;;;;;;6080933;23;20440;-85
2024/03/19 08:16:47;;;;;;;10.87;6.63;;;;;;;;;;6080839;23;20429;-85
2024/03/19 08:19:39;;;;;;;10.97;7.50;;;;;;;;;;6070414;23;20407;-86
2024/03/19 08:22:44;;;;;;;7.97;5.90;;;;;;;;;;6104275;23;20387;-86
2024/03/19 08:25:38;;;;;;;10.00;6.37;;;;;;;;;;6105784;23;20405;-87
2024/03/19 08:28:05;;;;;;;16.60;7.70;;;;;;;;;;6080486;23;20434;-87
2024/03/19 08:30:35;;;;;;;13.03;7.03;;;;;;;;;;6080812;23;20405;-86
2024/03/19 08:33:25;;;;;;;9.63;6.27;;;;;;;;;;6101274;23;20531;-86
2024/03/19 08:35:57;;;;;;;7.37;5.93;;;;;;;;;;6083439;23;20403;-88
2024/03/19 08:38:24;;;;;;;8.43;7.00;;;;;;;;;;6081794;23;20432;-85
2024/03/19 08:40:56;;;;;;;7.30;6.30;;;;;;;;;;6083664;23;20416;-88
2024/03/19 08:43:31;;;;;;;13.67;7.53;;;;;;;;;;6083474;23;20401;-85
2024/03/19 08:46:00;;;;;;;11.40;6.93;;;;;;;;;;6088702;23;20412;-87
2024/03/19 08:48:34;;;;;;;12.63;7.40;;;;;;;;;;6092009;23;20513;-88
2024/03/19 08:51:01;;;;;;;7.40;6.70;;;;;;;;;;6095468;23;20456;-88
2024/03/19 08:53:33;;;;;;;11.40;6.97;;;;;;;;;;6096718;23;20473;-87
2024/03/19 08:56:16;;;;;;;9.73;7.70;;;;;;;;;;6096454;23;20472;-88
2024/03/19 08:58:49;;;;;;;11.63;6.97;;;;;;;;;;6095998;23;20480;-87
2024/03/19 09:01:27;;;;;;;8.60;6.53;;;;;;;;;;6097436;23;20547;-91
2024/03/19 09:03:59;;;;;;;7.93;5.87;;;;;;;;;;6097684;23;20475;-86
2024/03/19 09:09:18;;;;;;;11.00;6.80;;;;;;;;;;6083310;23;20461;-86
2024/03/19 09:15:30;;;;;;;10.40;6.80;;;;;;;;;;6078805;23;20425;-85
2024/03/19 09:18:01;;;;;;;8.80;6.07;;;;;;;;;;6047370;23;20480;-86
2024/03/19 09:20:35;;;;;;;9.77;6.67;;;;;;;;;;6076585;23;20445;-86
2024/03/19 09:23:06;;;;;;;11.53;7.30;;;;;;;;;;6077127;23;20565;-84
2024/03/19 09:25:42;;;;;;;14.13;7.70;;;;;;;;;;6078879;23;20394;-86
2024/03/19 09:28:12;;;;;;;11.63;6.50;;;;;;;;;;6070882;23;20438;-85
2024/03/19 09:30:40;;;;;;;7.60;6.33;;;;;;;;;;6024447;23;20406;-86
2024/03/19 09:33:11;;;;;;;7.83;6.43;;;;;;;;;;6072817;23;20734;-86
2024/03/19 09:35:37;;;;;;;9.87;6.27;;;;;;;;;;6025669;23;20486;-87
2024/03/19 09:38:17;;;;;;;9.60;6.10;;;;;;;;;;6026182;23;20434;-87
2024/03/19 09:40:52;;;;;;;8.30;6.77;;;;;;;;;;6025336;23;20403;-86
2024/03/19 09:43:27;;;;;;;12.00;6.37;;;;;;;;;;6025841;23;20406;-88
2024/03/19 09:45:56;;;;;;;11.87;6.40;;;;;;;;;;6079232;23;20394;-85
2024/03/19 09:48:23;;;;;;;11.30;7.03;;;;;;;;;;6032653;23;20423;-87
2024/03/19 09:50:51;;;;;;;9.93;6.00;;;;;;;;;;6030884;23;20407;-85
2024/03/19 09:53:27;;;;;;;10.70;6.93;;;;;;;;;;6027921;23;20409;-87
2024/03/19 09:55:54;;;;;;;6.37;5.57;;;;;;;;;;6025829;23;20422;-87
2024/03/19 09:58:23;;;;;;;6.97;5.43;;;;;;;;;;6026778;23;20437;-86
2024/03/19 10:00:54;;;;;;;7.17;6.20;;;;;;;;;;6037528;23;20421;-84
2024/03/19 10:03:26;;;;;;;7.90;6.10;;;;;;;;;;6038323;23;20410;-88
2024/03/19 10:06:01;;;;;;;7.80;6.00;;;;;;;;;;6083397;23;20476;-88
2024/03/19 10:08:30;;;;;;;6.33;5.13;;;;;;;;;;6028038;23;20422;-87
2024/03/19 10:10:57;;;;;;;6.23;4.97;;;;;;;;;;6028608;23;20406;-87
2024/03/19 10:13:35;;;;;;;8.40;5.67;;;;;;;;;;6025765;23;20411;-87
2024/03/19 10:16:03;;;;;;;8.30;5.17;;;;;;;;;;6051305;23;20398;-87
2024/03/19 10:18:34;;;;;;;6.53;4.80;;;;;;;;;;6030034;23;20442;-85
2024/03/19 10:21:10;;;;;;;6.10;4.60;;;;;;;;;;6040772;23;20447;-87
2024/03/19 10:23:52;;;;;;;6.17;5.57;;;;;;;;;;6063299;23;20395;-86
2024/03/19 10:26:21;;;;;;;8.40;4.70;;;;;;;;;;6031466;23;20407;-86
2024/03/19 10:32:50;;;;;;;5.40;3.90;;;;;;;;;;6051301;23;20374;-85
2024/03/19 10:35:29;;;;;;;7.13;5.00;;;;;;;;;;6023200;23;20452;-85
2024/03/19 10:37:58;;;;;;;6.20;4.20;;;;;;;;;;6025338;23;20431;-87
2024/03/19 10:40:27;;;;;;;5.33;4.67;;;;;;;;;;6025092;23;20413;-87
2024/03/19 10:42:54;;;;;;;5.63;4.40;;;;;;;;;;6046647;23;20403;-88
2024/03/19 10:45:30;;;;;;;5.40;4.90;;;;;;;;;;6072835;23;20414;-86
2024/03/19 10:48:06;;;;;;;6.13;3.90;;;;;;;;;;6025725;23;20427;-86
2024/03/19 10:50:36;;;;;;;3.93;3.63;;;;;;;;;;6027446;23;20846;-87
2024/03/19 10:53:27;;;;;;;;;;;;;;;;;;;;;
2024/03/19 10:56:29;;;;;;;5.30;3.70;;;;;;;;;;6040644;23;20487;-86
2024/03/19 10:58:58;;;;;;;4.93;3.23;;;;;;;;;;6021640;23;20402;-86
2024/03/19 11:01:27;;;;;;;7.00;3.30;;;;;;;;;;6023209;23;20409;-88
2024/03/19 11:04:02;;;;;;;4.23;3.13;;;;;;;;;;6024237;23;20394;-86
2024/03/19 11:06:35;;;;;;;2.73;2.50;;;;;;;;;;6023216;23;20417;-86
2024/03/19 11:09:02;;;;;;;3.50;2.87;;;;;;;;;;6023108;23;20406;-84
2024/03/19 11:11:36;;;;;;;5.50;3.20;;;;;;;;;;6023160;23;20513;-87
2024/03/19 11:14:02;;;;;;;5.17;3.17;;;;;;;;;;6021660;23;20456;-84
2024/03/19 11:16:41;;;;;;;6.37;2.13;;;;;;;;;;6021974;23;20414;-84
2024/03/19 11:19:27;;;;;;;5.83;1.70;;;;;;;;;;6070543;23;21108;-86
2024/03/19 11:21:54;;;;;;;3.10;2.00;;;;;;;;;;6026626;23;20399;-85
2024/03/19 11:24:31;;;;;;;4.10;1.67;;;;;;;;;;6025018;23;20406;-85
2024/03/19 11:27:19;;;;;;;3.90;2.23;;;;;;;;;;6049817;23;20495;-86
2024/03/19 11:30:11;;;;;;;2.87;2.03;;;;;;;;;;6026446;23;20403;-87
2024/03/19 11:32:41;;;;;;;3.33;2.10;;;;;;;;;;6025786;23;20407;-85
2024/03/19 11:35:31;;;;;;;3.93;1.90;;;;;;;;;;6028515;23;20446;-86
2024/03/19 11:38:06;;;;;;;5.03;2.50;;;;;;;;;;6027892;23;20820;-87
2024/03/19 11:40:46;;;;;;;1.57;1.47;;;;;;;;;;6029545;23;20398;-84
2024/03/19 11:43:19;;;;;;;3.47;1.90;;;;;;;;;;6028719;23;20406;-89
2024/03/19 11:45:50;;;;;;;2.37;1.43;;;;;;;;;;6040689;23;20484;-88
2024/03/19 11:48:33;;;;;;;2.60;1.57;;;;;;;;;;6042941;23;20497;-86
2024/03/19 11:51:06;;;;;;;4.60;1.97;;;;;;;;;;6064477;23;20462;-87
2024/03/19 11:53:36;;;;;;;4.20;2.30;;;;;;;;;;6042044;23;20471;-86
2024/03/19 11:56:08;;;;;;;5.53;2.27;;;;;;;;;;6041010;23;20545;-87
2024/03/19 11:58:44;;;;;;;1.80;1.50;;;;;;;;;;6033120;23;20426;-85
2024/03/19 12:01:22;;;;;;;2.80;1.60;;;;;;;;;;6028446;23;20501;-85
2024/03/19 12:03:49;;;;;;;3.07;1.93;;;;;;;;;;6030859;23;20733;-86
2024/03/19 12:06:19;;;;;;;3.20;1.90;;;;;;;;;;6029899;23;20403;-87
2024/03/19 12:08:49;;;;;;;4.10;2.00;;;;;;;;;;6037934;23;20482;-87
2024/03/19 12:14:06;;;;;;;6.90;2.30;;;;;;;;;;6076849;23;20444;-86
2024/03/19 12:16:35;;;;;;;3.63;1.80;;;;;;;;;;6029895;23;20409;-87
2024/03/19 12:19:07;;;;;;;2.87;1.80;;;;;;;;;;6074417;23;20431;-85
2024/03/19 12:22:01;;;;;;;4.00;1.83;;;;;;;;;;6050526;23;20490;-89
2024/03/19 12:24:33;;;;;;;1.53;1.40;;;;;;;;;;6022309;23;20406;-87
2024/03/19 12:27:33;;;;;;;3.40;1.97;;;;;;;;;;6045912;23;20419;-86
2024/03/19 12:30:10;;;;;;;3.33;2.00;;;;;;;;;;6021187;23;20406;-85
2024/03/19 12:33:19;;;;;;;2.37;1.33;;;;;;;;;;6023333;23;20410;-88
2024/03/19 12:35:51;;;;;;;6.53;1.90;;;;;;;;;;6021666;23;21086;-85
2024/03/19 12:38:50;;;;;;;4.17;1.97;;;;;;;;;;6041652;23;20884;-87
2024/03/19 12:41:26;;;;;;;1.40;1.30;;;;;;;;;;6010255;23;20417;-85
2024/03/19 12:43:56;;;;;;;2.90;1.73;;;;;;;;;;6020764;23;20864;-86
2024/03/19 12:46:36;;;;;;;4.83;1.83;;;;;;;;;;6023703;23;20417;-88
2024/03/19 12:49:06;;;;;;;2.30;1.53;;;;;;;;;;6022351;23;20403;-87
2024/03/19 12:51:36;;;;;;;3.00;1.93;;;;;;;;;;6021870;23;20939;-88
2024/03/19 12:54:14;;;;;;;4.70;2.20;;;;;;;;;;6065184;23;20446;-83
2024/03/19 12:56:48;;;;;;;5.50;1.70;;;;;;;;;;6022088;23;20423;-86
2024/03/19 12:59:21;;;;;;;3.10;2.00;;;;;;;;;;6021717;23;20474;-87
2024/03/19 13:01:54;;;;;;;3.60;1.57;;;;;;;;;;6022594;23;20403;-87
2024/03/19 13:04:21;;;;;;;3.20;1.77;;;;;;;;;;6026516;23;20417;-89
2024/03/19 13:06:54;;;;;;;2.60;1.20;;;;;;;;;;6021719;23;20426;-85
2024/03/19 13:09:34;;;;;;;1.80;1.30;;;;;;;;;;6023725;23;20430;-86
2024/03/19 13:12:11;;;;;;;2.73;1.40;;;;;;;;;;6026257;23;20477;-85
2024/03/19 13:14:43;;;;;;;1.43;1.10;;;;;;;;;;6073575;23;20448;-86
2024/03/19 13:22:28;;;;;;;2.43;1.43;;;;;;;;;;6074069;23;20494;-86
2024/03/19 13:24:58;;;;;;;1.70;1.60;;;;;;;;;;6057092;23;20418;-87
2024/03/19 13:27:33;;;;;;;2.53;1.20;;;;;;;;;;6051827;23;20435;-85
2024/03/19 13:30:08;;;;;;;3.30;2.10;;;;;;;;;;6027025;23;20445;-86
2024/03/19 13:32:41;;;;;;;1.47;1.27;;;;;;;;;;6032032;23;20424;-84
2024/03/19 13:35:17;;;;;;;1.77;1.20;;;;;;;;;;6053516;23;20442;-86
2024/03/19 13:37:47;;;;;;;1.67;1.30;;;;;;;;;;6033356;23;20432;-86
2024/03/19 13:40:25;;;;;;;1.60;1.47;;;;;;;;;;6058586;23;20419;-88
2024/03/19 13:46:39;;;;;;;1.27;1.20;;;;;;;;;;6011604;23;20396;-88
2024/03/19 13:49:09;;;;;;;2.53;1.30;;;;;;;;;;6032947;23;20401;-85
2024/03/19 13:51:40;;;;;;;2.20;1.23;;;;;;;;;;6053337;23;20486;-87
2024/03/19 13:54:17;;;;;;;3.77;1.70;;;;;;;;;;6037068;23;20805;-87
2024/03/19 13:56:49;;;;;;;1.53;1.13;;;;;;;;;;6027800;23;20416;-86
2024/03/19 13:59:32;;;;;;;1.80;1.20;;;;;;;;;;6023641;23;20437;-87
2024/03/19 14:02:03;;;;;;;2.70;1.37;;;;;;;;;;6022976;23;20419;-87
2024/03/19 14:05:07;;;;;;;;;;;;;;;;;;;;;
2024/03/19 14:07:38;;;;;;;2.70;1.20;;;;;;;;;;6030195;23;20466;-86
2024/03/19 14:10:21;;;;;;;1.60;1.50;;;;;;;;;;6022370;23;20401;-88
2024/03/19 14:13:15;;;;;;;5.37;1.60;;;;;;;;;;6020769;23;20445;-90
2024/03/19 14:16:01;;;;;;;1.87;1.30;;;;;;;;;;6020370;23;20449;-87
2024/03/19 14:18:51;;;;;;;1.23;1.13;;;;;;;;;;6034177;23;20505;-87
2024/03/19 14:21:26;;;;;;;1.47;1.17;;;;;;;;;;6042097;23;20476;-90
2024/03/19 14:23:56;;;;;;;2.20;1.00;;;;;;;;;;6041542;23;20610;-88
2024/03/19 14:26:38;;;;;;;2.90;1.57;;;;;;;;;;6061008;23;20508;-89
2024/03/19 14:32:04;;;;;;;4.93;2.83;;;;;;;;;;6099946;23;20448;-89
2024/03/19 14:35:18;;;;;;;2.90;1.57;;;;;;;;;;6058056;23;20513;-90
2024/03/19 14:37:51;;;;;;;2.70;1.60;;;;;;;;;;6061671;23;20496;-87
2024/03/19 14:40:27;;;;;;;3.97;1.23;;;;;;;;;;6065006;23;20490;-89
2024/03/19 14:42:56;;;;;;;3.13;1.60;;;;;;;;;;6055170;23;20457;-89
2024/03/19 14:45:39;;;;;;;2.93;1.40;;;;;;;;;;6062372;23;20409;-85
2024/03/19 14:48:12;;;;;;;2.00;1.17;;;;;;;;;;6045592;23;20431;-85
2024/03/19 14:50:51;;;;;;;2.13;1.30;;;;;;;;;;6045383;23;20416;-86
2024/03/19 14:53:36;;;;;;;3.70;1.70;;;;;;;;;;6048473;23;20460;-85
2024/03/19 14:56:05;;;;;;;1.50;1.30;;;;;;;;;;6045549;23;20408;-88
2024/03/19 14:58:39;;;;;;;5.30;1.40;;;;;;;;;;6047415;23;20422;-88
2024/03/19 15:01:10;;;;;;;1.63;1.13;;;;;;;;;;6044268;23;20651;-86
2024/03/19 15:03:52;;;;;;;2.40;1.30;;;;;;;;;;6046054;23;20382;-86
2024/03/19 15:06:36;;;;;;;;;;;;;;;;;;;;;
2024/03/19 15:09:09;;;;;;;2.27;1.30;;;;;;;;;;6071606;23;20815;-87
2024/03/19 15:11:48;;;;;;;1.47;1.37;;;;;;;;;;6054890;23;20397;-88
2024/03/19 15:14:18;;;;;;;2.30;1.40;;;;;;;;;;6057600;23;20457;-85
2024/03/19 15:16:50;;;;;;;1.90;1.40;;;;;;;;;;6046193;23;20441;-84
2024/03/19 15:19:17;;;;;;;3.20;1.37;;;;;;;;;;6049294;23;20439;-87
2024/03/19 15:22:04;;;;;;;1.87;1.00;;;;;;;;;;6047175;23;20410;-89
2024/03/19 15:24:47;;;;;;;3.37;1.57;;;;;;;;;;6046934;23;20410;-87
2024/03/19 15:27:29;;;;;;;2.13;1.20;;;;;;;;;;6047295;23;20448;-86
2024/03/19 15:29:59;;;;;;;1.73;1.00;;;;;;;;;;6072270;23;20410;-87
2024/03/19 15:32:47;;;;;;;1.50;1.30;;;;;;;;;;6062053;23;20446;-86
2024/03/19 15:35:24;;;;;;;1.80;1.20;;;;;;;;;;6044897;23;20457;-86
2024/03/19 15:37:56;;;;;;;3.53;1.20;;;;;;;;;;6046970;23;20413;-85
2024/03/19 15:40:25;;;;;;;2.67;1.30;;;;;;;;;;6048726;23;20445;-85
2024/03/19 15:43:13;;;;;;;2.17;1.30;;;;;;;;;;6050219;23;20410;-87
2024/03/19 15:45:49;;;;;;;4.13;1.40;;;;;;;;;;6046631;23;20406;-89
2024/03/19 15:51:40;;;;;;;3.03;0.97;;;;;;;;;;5974194;23;20529;-88
2024/03/19 15:54:19;;;;;;;3.33;1.10;;;;;;;;;;6063498;23;20450;-87
2024/03/19 15:57:11;;;;;;;2.50;1.33;;;;;;;;;;6071220;23;20413;-89
2024/03/19 15:59:51;;;;;;;1.13;1.03;;;;;;;;;;6042098;23;20402;-88
2024/03/19 16:02:45;;;;;;;1.43;1.20;;;;;;;;;;6051670;23;20425;-87
2024/03/19 16:05:18;;;;;;;3.00;1.13;;;;;;;;;;6047349;23;20410;-87
2024/03/19 16:07:55;;;;;;;3.33;1.60;;;;;;;;;;6070858;23;20432;-86
2024/03/19 16:10:41;;;;;;;1.53;1.20;;;;;;;;;;6047347;23;20410;-88
2024/03/19 16:13:14;;;;;;;2.17;1.30;;;;;;;;;;6050213;23;20415;-85
2024/03/19 16:16:10;;;;;;;2.17;1.37;;;;;;;;;;6061427;23;20441;-89
2024/03/19 16:18:41;;;;;;;2.93;1.10;;;;;;;;;;6080130;23;20422;-85
2024/03/19 16:21:24;;;;;;;2.13;1.70;;;;;;;;;;6049321;23;20405;-86
2024/03/19 16:24:38;;;;;;;2.00;1.10;;;;;;;;;;6046170;23;20413;-89
2024/03/19 16:27:21;;;;;;;3.67;1.30;;;;;;;;;;6039400;23;20539;-87
2024/03/19 16:29:58;;;;;;;2.20;1.20;;;;;;;;;;6021326;23;20406;-85
2024/03/19 16:32:27;;;;;;;2.70;1.10;;;;;;;;;;6023230;23;20402;-85
2024/03/19 16:35:02;;;;;;;2.33;1.43;;;;;;;;;;6020211;23;20445;-88
2024/03/19 16:38:12;;;;;;;1.87;1.20;;;;;;;;;;6018971;23;20438;-86
2024/03/19 16:43:51;;;;;;;2.30;1.40;;;;;;;;;;6017636;23;20421;-85
2024/03/19 16:46:29;;;;;;;2.20;1.00;;;;;;;;;;6013075;23;20441;-88
2024/03/19 16:49:14;;;;;;;1.40;1.20;;;;;;;;;;5993333;23;20411;-86
2024/03/19 16:52:26;;;;;;;2.13;1.37;;;;;;;;;;6016871;23;20410;-86
2024/03/19 16:55:35;;;;;;;2.07;1.10;;;;;;;;;;5903325;24;20451;-84
2024/03/19 16:58:07;;;;;;;4.90;1.90;;;;;;;;;;5993314;23;20468;-88
2024/03/19 17:00:36;;;;;;;2.13;1.33;;;;;;;;;;6019408;23;20406;-87
2024/03/19 17:03:10;;;;;;;2.07;1.10;;;;;;;;;;5992639;23;20446;-86
2024/03/19 17:05:42;;;;;;;2.07;1.20;;;;;;;;;;5990528;23;20386;-88
2024/03/19 17:08:15;;;;;;;2.43;1.20;;;;;;;;;;5992676;23;20430;-83
2024/03/19 17:14:38;;;;;;;3.67;1.37;;;;;;;;;;6058968;23;20449;-87
2024/03/19 17:30:39;;;;;;;3.73;1.20;;;;;;;;;;6102136;23;20420;-89
2024/03/19 17:33:08;;;;;;;1.47;1.33;;;;;;;;;;6100204;23;20437;-87
2024/03/19 17:35:34;;;;;;;3.13;2.70;;;;;;;;;;6124298;23;20457;-88
2024/03/19 17:38:04;;;;;;;1.93;1.40;;;;;;;;;;6059053;23;20434;-87
2024/03/19 17:40:36;;;;;;;2.33;1.90;;;;;;;;;;6060045;23;20406;-88
2024/03/19 17:43:08;;;;;;;3.63;1.57;;;;;;;;;;6060121;23;20398;-88
2024/03/19 17:45:42;;;;;;;2.40;1.40;;;;;;;;;;6060769;23;20560;-88